Aérodrome :
LOGIN :

S'inscrire | Disclaimer

   EN    FR    IT 

 










Légende :    VFR   VFR Marginal   IFR   IFR Intensif   IFR Très Intensif
Visi : 
Plafond : 
>= 8 km
>= 3000ft
5 à 8 km
1000 à 3000 ft
1500m à 5 km
500 à 1000 ft
800 à 1500m
200 à 500 ft
< 800m
< 200 ft
Symboles :   Orages  Brouillard  Fortes neiges  Fortes précipitations  Vent > 20 kt
SIGMETs :   Divers  Orages  Givrage  Turbulence  Onde Orograph.  Cendres Volcan.







- Altitude de l'aérodrome : 183 ft
- Code IATA : HAJ


EDDV - Hanover/Langenhagen Int.

DERNIER METAR :
  • 251950Z 27003KT 9999 FEW020 04/00 Q1009 NOSIG

METARs EXPIRÉS :
  • 251920Z 28005KT 9999 FEW020CB 04/00 Q1009 NOSIG
  • 251850Z 26004KT 230V290 9999 FEW020CB 05/01 Q1009 NOSIG
  • 251820Z 26004KT 230V290 9999 VCSH FEW019CB 05/01 Q1008 NOSIG
  • 251750Z 26005KT 230V300 9999 FEW019CB 06/01 Q1008 NOSIG

TAF TAF EDDV
Valide du 25 à 18h jusqu'au 26 à 18h UTC


251700Z 2518/2618 27006KT 9999 FEW020
PROB30
TEMPO 2612/2618 28015G30KT 4000 SHRAGS BKN020CB
Pas de NOTAMs connus pour ce terrain.
1 SIGMET publié pour la FIR Bremen (EDWW) :
 
Turbulence forte
EDWW SIGMET 1 VALID 252015/260000 EDZH
EDWW BREMEN FIR SEV TURB FCST N OF N5345 AND E OF E01100 FL170/230 MOV NE NC=



MET'MAP, la Météo Aéronautique d'un coup d'oeil ! - Copyright ORBIFLY Décembre 2007 - Disclaimer

ORBIFLY MET'MAP TEAM :

Programmation & Développement : Alexandra Zaïnal
Conception & Développement : Baudouin d'Aumeries
Co-Programmation & Développement : Marc-Olivier Méhu
Soutien technique & logistique : Manuel Goepfert

Contact : metmap@orbifly.com




SOURCES & CREDITS :

   NOAA